.
WxDataArchive / Data Records for 2014-01-22
2014-01-21 January 2014 2014-01-23

Data Records for Wednesday, 22 January 2014

Time	Temp	Chill	HIndex	Humid	Dewpt	 Wind 	HiWind	WindDir	Rain 	Barom 
-----	----	-----	------	-----	-----	------	------	-------	-----	----- 
00:00	1.8	1.8	1.8	71	-5.4	0	0	---	0.00	30.247 
00:05	2.0	2.0	2.0	71	-5.2	0	0	---	0.00	30.247 
00:10	2.0	2.0	2.0	71	-5.2	0	0	---	0.00	30.247 
00:15	2.2	2.2	2.2	71	-5.0	0	0	---	0.00	30.245 
00:20	2.4	2.4	2.4	71	-4.8	0	0	---	0.00	30.245 
00:25	2.4	2.4	2.4	70	-5.1	0	0	---	0.00	30.245 
00:30	2.2	2.2	2.2	70	-5.3	0	0	---	0.00	30.241 
00:35	2.2	2.2	2.2	70	-5.3	0	0	---	0.00	30.241 
00:40	2.2	2.2	2.2	70	-5.3	0	0	---	0.00	30.241 
00:45	2.2	2.2	2.2	70	-5.3	0	0	---	0.00	30.240 
00:50	2.2	2.2	2.2	70	-5.3	0	0	---	0.00	30.240 
00:55	2.4	2.4	2.4	70	-5.1	0	0	---	0.00	30.240 
01:00	2.4	2.4	2.4	70	-5.1	0	0	---	0.00	30.238 
01:05	2.6	2.6	2.6	70	-4.9	0	0	---	0.00	30.238 
01:10	2.6	2.6	2.6	70	-4.9	0	0	---	0.00	30.238 
01:15	2.6	2.6	2.6	70	-4.9	0	0	---	0.00	30.234 
01:20	2.6	2.6	2.6	70	-4.9	0	0	---	0.00	30.234 
01:25	2.6	2.6	2.6	70	-4.9	0	0	---	0.00	30.234 
01:30	2.6	2.6	2.6	70	-4.9	0	0	---	0.00	30.233 
01:35	2.6	2.6	2.6	70	-4.9	0	0	---	0.00	30.233 
01:40	2.6	2.6	2.6	70	-4.9	0	0	---	0.00	30.233 
01:45	2.8	2.8	2.8	70	-4.7	0	0	---	0.00	30.222 
01:50	2.8	2.8	2.8	70	-4.7	0	0	---	0.00	30.222 
01:55	2.6	2.6	2.6	70	-4.9	0	0	---	0.00	30.222 
02:00	2.6	2.6	2.6	71	-4.6	0	0	---	0.00	30.220 
02:05	2.4	2.4	2.4	71	-4.8	0	0	---	0.00	30.220 
02:10	2.4	2.4	2.4	71	-4.8	0	0	---	0.00	30.220 
02:15	2.4	2.4	2.4	71	-4.8	0	0	---	0.00	30.221 
02:20	2.2	2.2	2.2	72	-4.7	0	0	---	0.00	30.221 
02:25	2.2	2.2	2.2	72	-4.7	0	0	---	0.00	30.221 
02:30	2.0	2.0	2.0	72	-4.9	0	0	---	0.00	30.225 
02:35	1.8	1.8	1.8	72	-5.1	0	0	---	0.00	30.225 
02:40	1.8	1.8	1.8	73	-4.8	0	0	---	0.00	30.225 
02:45	1.8	1.8	1.8	73	-4.8	0	0	---	0.00	30.219 
02:50	1.8	1.8	1.8	73	-4.8	0	0	---	0.00	30.219 
02:55	1.8	1.8	1.8	73	-4.8	0	0	---	0.00	30.219 
03:00	1.8	1.8	1.8	73	-4.8	0	0	---	0.00	30.216 
03:05	1.7	1.7	1.7	73	-4.9	0	0	---	0.00	30.216 
03:10	1.5	1.5	1.5	73	-5.1	0	0	---	0.00	30.216 
03:15	1.5	1.5	1.5	73	-5.1	0	0	---	0.00	30.214 
03:20	1.3	1.3	1.3	74	-5.0	0	0	---	0.00	30.214 
03:25	1.3	1.3	1.3	74	-5.0	0	0	---	0.00	30.214 
03:30	1.1	1.1	1.1	74	-5.2	0	0	---	0.00	30.202 
03:35	1.1	1.1	1.1	74	-5.2	0	0	---	0.00	30.202 
03:40	1.1	1.1	1.1	74	-5.2	0	0	---	0.00	30.202 
03:45	0.9	0.9	0.9	74	-5.4	0	0	---	0.00	30.198 
03:50	0.9	0.9	0.9	74	-5.4	0	0	---	0.00	30.198 
03:55	0.9	0.9	0.9	74	-5.4	0	0	---	0.00	30.198 
04:00	0.9	0.9	0.9	75	-5.1	0	0	---	0.00	30.187 
04:05	0.9	0.9	0.9	75	-5.1	0	0	---	0.00	30.187 
04:10	1.1	1.1	1.1	76	-4.7	0	0	---	0.00	30.187 
04:15	1.1	1.1	1.1	76	-4.7	0	0	---	0.00	30.193 
04:20	1.3	1.3	1.3	76	-4.5	0	0	---	0.00	30.193 
04:25	1.3	1.3	1.3	76	-4.5	0	0	---	0.00	30.193 
04:30	1.5	1.5	1.5	76	-4.3	0	0	---	0.00	30.188 
04:35	1.7	1.7	1.7	76	-4.1	0	0	---	0.00	30.188 
04:40	1.8	1.8	1.8	76	-4.0	0	0	---	0.00	30.188 
04:45	1.8	1.8	1.8	76	-4.0	0	0	---	0.00	30.188 
04:50	1.8	1.8	1.8	75	-4.3	0	0	---	0.00	30.188 
04:55	1.8	1.8	1.8	76	-4.0	0	0	---	0.00	30.188 
05:00	2.0	2.0	2.0	76	-3.8	0	0	---	0.00	30.185 
05:05	2.0	2.0	2.0	75	-4.1	0	0	---	0.00	30.185 
05:10	2.0	2.0	2.0	75	-4.1	0	0	---	0.00	30.185 
05:15	2.0	2.0	2.0	75	-4.1	0	0	---	0.00	30.179 
05:20	2.2	2.2	2.2	76	-3.6	0	0	---	0.00	30.179 
05:25	2.2	2.2	2.2	75	-3.9	0	0	---	0.00	30.179 
05:30	2.0	2.0	2.0	75	-4.1	0	0	---	0.00	30.175 
05:35	2.0	2.0	2.0	75	-4.1	0	0	---	0.00	30.175 
05:40	1.8	1.8	1.8	75	-4.3	0	0	---	0.00	30.175 
05:45	1.7	1.7	1.7	75	-4.4	0	0	---	0.00	30.176 
05:50	1.7	1.7	1.7	75	-4.4	0	0	---	0.00	30.176 
05:55	1.5	1.5	1.5	75	-4.6	0	0	---	0.00	30.176 
06:00	1.5	1.5	1.5	75	-4.6	0	0	---	0.00	30.173 
06:05	1.5	1.5	1.5	75	-4.6	0	0	---	0.00	30.173 
06:10	1.5	1.5	1.5	75	-4.6	0	0	---	0.00	30.173 
06:15	1.3	1.3	1.3	75	-4.7	0	0	---	0.00	30.171 
06:20	1.3	1.3	1.3	75	-4.7	0	1	338	0.00	30.171 
06:25	1.3	1.3	1.3	74	-5.0	0	1	338	0.00	30.171 
06:30	1.3	1.3	1.3	74	-5.0	0	1	338	0.00	30.165 
06:35	1.5	1.5	1.5	73	-5.1	0	0	---	0.00	30.165 
06:40	1.3	1.3	1.3	73	-5.3	0	0	---	0.00	30.165 
06:45	1.3	1.3	1.3	72	-5.6	0	1	338	0.00	30.163 
06:50	1.3	1.3	1.3	72	-5.6	0	1	338	0.00	30.163 
06:55	1.3	1.3	1.3	71	-5.9	0	0	---	0.00	30.163 
07:00	1.1	1.1	1.1	71	-6.1	0	0	---	0.00	30.159 
07:05	0.9	0.9	0.9	71	-6.3	0	0	---	0.00	30.159 
07:10	0.7	0.7	0.7	71	-6.5	0	0	---	0.00	30.159 
07:15	0.5	0.5	0.5	71	-6.6	0	0	---	0.00	30.164 
07:20	0.3	0.3	0.3	71	-6.8	0	0	---	0.00	30.164 
07:25	0.3	0.3	0.3	71	-6.8	0	0	---	0.00	30.164 
07:30	0.1	0.1	0.1	71	-7.0	0	0	---	0.00	30.167 
07:35	0.1	0.1	0.1	71	-7.0	0	1	338	0.00	30.167 
07:40	0.3	0.3	0.3	72	-6.6	0	0	---	0.00	30.167 
07:45	0.5	0.5	0.5	72	-6.4	0	0	---	0.00	30.166 
07:50	0.7	0.7	0.7	72	-6.2	0	0	---	0.00	30.166 
07:55	0.9	0.9	0.9	72	-6.0	0	0	---	0.00	30.166 
08:00	1.1	1.1	1.1	72	-5.8	0	1	338	0.00	30.162 
08:05	1.1	1.1	1.1	72	-5.8	0	1	338	0.00	30.162 
08:10	1.3	1.3	1.3	72	-5.6	0	1	338	0.00	30.162 
08:15	1.5	1.5	1.5	72	-5.4	0	1	338	0.00	30.160 
08:20	1.5	1.5	1.5	72	-5.4	0	1	338	0.00	30.160 
08:25	1.7	1.7	1.7	73	-4.9	0	1	338	0.00	30.160 
08:30	1.8	1.8	1.8	73	-4.8	0	1	338	0.00	30.152 
08:35	2.0	2.0	2.0	73	-4.6	0	1	338	0.00	30.152 
08:40	2.0	2.0	2.0	73	-4.6	0	3	338	0.00	30.152 
08:45	2.2	2.2	2.2	73	-4.4	1	3	112	0.00	30.139 
08:50	2.4	2.4	2.4	73	-4.2	0	2	112	0.00	30.139 
08:55	2.4	2.4	2.4	73	-4.2	1	3	112	0.00	30.139 
09:00	2.6	2.6	2.6	73	-4.0	0	1	112	0.00	30.143 
09:05	2.6	2.6	2.6	73	-4.0	0	3	112	0.00	30.143 
09:10	2.8	2.8	2.8	73	-3.9	0	3	112	0.00	30.143 
09:15	3.0	3.0	3.0	73	-3.7	1	3	112	0.00	30.135 
09:20	3.2	3.2	3.2	73	-3.5	1	4	112	0.00	30.135 
09:25	3.4	3.4	3.4	74	-3.0	0	1	112	0.00	30.135 
09:30	3.7	3.7	3.7	73	-3.0	0	1	202	0.00	30.140 
09:35	3.9	3.9	3.9	73	-2.8	0	2	202	0.00	30.140 
09:40	4.1	4.1	4.1	73	-2.6	0	2	90	0.00	30.140 
09:45	4.3	4.3	4.3	73	-2.4	0	2	90	0.00	30.143 
09:50	4.5	4.5	4.5	73	-2.2	0	2	90	0.00	30.143 
09:55	4.8	4.8	4.8	72	-2.2	0	2	90	0.00	30.143 
10:00	5.0	5.0	5.0	72	-2.0	1	3	90	0.00	30.146 
10:05	5.2	5.2	5.2	72	-1.8	0	2	90	0.00	30.146 
10:10	5.4	5.4	5.4	72	-1.6	0	2	90	0.00	30.146 
10:15	5.4	5.4	5.4	71	-1.9	0	3	90	0.00	30.145 
10:20	5.6	5.6	5.6	71	-1.7	0	2	90	0.00	30.145 
10:25	5.8	5.8	5.8	71	-1.5	1	3	112	0.00	30.145 
10:30	6.0	6.0	6.0	70	-1.6	0	3	112	0.00	30.139 
10:35	6.1	6.1	6.1	71	-1.3	0	2	112	0.00	30.139 
10:40	6.5	6.5	6.5	70	-1.2	0	2	112	0.00	30.139 
10:45	6.9	6.9	6.9	70	-0.8	0	1	112	0.00	30.137 
10:50	7.0	7.0	7.0	69	-1.0	0	2	112	0.00	30.137 
10:55	7.2	7.2	7.2	69	-0.8	0	2	112	0.00	30.137 
11:00	7.4	7.4	7.4	69	-0.6	0	1	135	0.00	30.138 
11:05	7.6	7.6	7.6	68	-0.7	0	1	135	0.00	30.138 
11:10	7.9	7.9	7.9	69	-0.1	0	1	135	0.00	30.138 
11:15	7.9	7.9	7.9	68	-0.4	0	5	112	0.00	30.127 
11:20	8.1	8.1	8.1	68	-0.2	0	5	68	0.00	30.127 
11:25	8.3	8.3	8.3	68	-0.0	0	3	68	0.00	30.127 
11:30	8.4	8.4	8.4	68	0.0	0	2	315	0.00	30.117 
11:35	8.6	8.6	8.6	67	-0.1	1	4	90	0.00	30.117 
11:40	8.6	8.6	8.6	67	-0.1	0	3	270	0.00	30.117 
11:45	8.8	8.8	8.8	67	0.1	1	3	248	0.00	30.112 
11:50	9.0	9.0	9.0	67	0.3	1	10	90	0.00	30.112 
11:55	9.2	9.2	9.2	67	0.5	1	4	90	0.00	30.112 
12:00	9.3	9.3	9.3	68	0.9	0	2	270	0.00	30.098 
12:05	9.7	9.7	9.7	68	1.3	0	2	270	0.00	30.098 
12:10	10.0	10.0	10.0	68	1.6	0	2	270	0.00	30.098 
12:15	10.4	10.4	10.4	66	1.3	1	4	248	0.00	30.089 
12:20	10.5	10.5	10.5	65	1.1	1	5	248	0.00	30.089 
12:25	10.5	10.5	10.5	65	1.1	1	6	248	0.00	30.089 
12:30	10.7	10.7	10.7	66	1.6	0	2	248	0.00	30.074 
12:35	10.9	10.9	10.9	66	1.8	1	3	0	0.00	30.074 
12:40	11.1	11.1	11.1	67	2.3	1	4	248	0.00	30.074 
12:45	11.1	11.1	11.1	67	2.3	1	5	248	0.00	30.060 
12:50	11.1	11.1	11.1	68	2.6	1	3	248	0.00	30.060 
12:55	11.2	11.2	11.2	69	3.0	1	5	112	0.00	30.060 
13:00	11.2	11.2	11.2	69	3.0	1	4	292	0.00	30.055 
13:05	11.4	11.4	11.4	70	3.5	0	4	315	0.00	30.055 
13:10	11.4	11.4	11.4	69	3.2	1	3	315	0.00	30.055 
13:15	11.4	11.4	11.4	69	3.2	0	2	68	0.00	30.041 
13:20	11.6	11.6	11.6	69	3.4	1	6	90	0.00	30.041 
13:25	11.6	11.6	11.6	69	3.4	1	3	45	0.00	30.041 
13:30	11.4	11.4	11.4	69	3.2	1	5	68	0.00	30.030 
13:35	11.6	11.6	11.6	69	3.4	0	2	45	0.00	30.030 
13:40	11.9	11.9	11.9	68	3.4	1	3	225	0.00	30.030 
13:45	11.9	11.9	11.9	68	3.4	1	5	112	0.00	30.023 
13:50	11.7	11.7	11.7	67	2.9	1	3	270	0.00	30.023 
13:55	11.9	11.9	11.9	67	3.1	0	2	270	0.00	30.023 
14:00	12.1	12.1	12.1	67	3.3	0	4	45	0.00	30.013 
14:05	12.6	12.6	12.6	67	3.8	0	2	292	0.00	30.013 
14:10	12.8	12.8	12.8	66	3.6	1	3	248	0.00	30.013 
14:15	12.8	12.8	12.8	65	3.3	1	2	248	0.00	30.009 
14:20	12.9	12.9	12.9	64	3.1	0	3	248	0.00	30.009 
14:25	12.9	12.9	12.9	63	2.7	2	4	112	0.00	30.009 
14:30	12.8	12.8	12.8	63	2.6	1	4	90	0.00	29.995 
14:35	12.9	12.9	12.9	62	2.4	0	3	90	0.00	29.995 
14:40	12.9	12.9	12.9	60	1.7	1	6	90	0.00	29.995 
14:45	13.1	13.1	13.1	60	1.9	1	6	90	0.00	29.995 
14:50	12.9	12.9	12.9	59	1.3	1	5	248	0.00	29.995 
14:55	13.1	13.1	13.1	60	1.9	0	2	248	0.00	29.995 
15:00	13.1	13.1	13.1	60	1.9	1	3	248	0.00	29.992 
15:05	12.9	12.9	12.9	60	1.7	1	7	68	0.00	29.992 
15:10	13.1	13.1	13.1	60	1.9	0	4	248	0.00	29.992 
15:15	13.3	13.3	13.3	60	2.0	1	4	248	0.00	29.991 
15:20	13.1	13.1	13.1	59	1.5	1	5	248	0.00	29.991 
15:25	13.1	13.1	13.1	61	2.2	1	9	248	0.00	29.991 
15:30	12.9	12.9	12.9	61	2.0	1	3	248	0.00	29.990 
15:35	12.9	12.9	12.9	62	2.4	1	3	270	0.00	29.990 
15:40	12.9	12.9	12.9	62	2.4	1	3	248	0.00	29.990 
15:45	12.9	12.9	12.9	62	2.4	1	5	248	0.00	29.991 
15:50	12.9	12.9	12.9	62	2.4	2	4	248	0.00	29.991 
15:55	12.8	12.8	12.8	63	2.6	1	5	225	0.00	29.991 
16:00	12.8	12.8	12.8	64	3.0	1	3	248	0.00	29.993 
16:05	12.8	12.8	12.8	64	3.0	1	4	248	0.00	29.993 
16:10	12.6	12.6	12.6	65	3.1	1	3	248	0.00	29.993 
16:15	12.4	12.4	12.4	65	2.9	1	6	248	0.00	29.993 
16:20	12.4	12.4	12.4	66	3.2	1	3	248	0.00	29.993 
16:25	12.3	12.3	12.3	67	3.5	1	4	292	0.00	29.993 
16:30	12.1	12.1	12.1	69	3.9	1	3	270	0.00	29.992 
16:35	12.1	12.1	12.1	70	4.2	1	3	292	0.00	29.992 
16:40	11.9	11.9	11.9	70	4.0	0	5	248	0.00	29.992 
16:45	11.9	11.9	11.9	71	4.3	0	4	248	0.00	29.993 
16:50	11.7	11.7	11.7	72	4.4	1	4	248	0.00	29.993 
16:55	11.7	11.7	11.7	73	4.7	0	2	135	0.00	29.993 
17:00	11.7	11.7	11.7	74	5.0	0	3	90	0.00	29.996 
17:05	11.7	11.7	11.7	75	5.3	0	2	90	0.00	29.996 
17:10	11.6	11.6	11.6	75	5.2	0	2	270	0.00	29.996 
17:15	11.6	11.6	11.6	75	5.2	0	3	270	0.00	29.999 
17:20	11.4	11.4	11.4	76	5.3	0	1	270	0.00	29.999 
17:25	11.4	11.4	11.4	76	5.3	0	2	270	0.00	29.999 
17:30	11.4	11.4	11.4	77	5.6	0	3	270	0.00	30.002 
17:35	11.4	11.4	11.4	77	5.6	0	2	270	0.00	30.002 
17:40	11.4	11.4	11.4	77	5.6	0	1	270	0.00	30.002 
17:45	11.4	11.4	11.4	78	5.9	0	2	270	0.00	30.008 
17:50	11.4	11.4	11.4	78	5.9	0	2	270	0.00	30.008 
17:55	11.4	11.4	11.4	78	5.9	0	1	270	0.00	30.008 
18:00	11.4	11.4	11.4	78	5.9	0	1	270	0.00	30.009 
18:05	11.4	11.4	11.4	79	6.2	0	2	270	0.00	30.009 
18:10	11.4	11.4	11.4	79	6.2	0	3	270	0.00	30.009 
18:15	11.4	11.4	11.4	79	6.2	0	1	270	0.00	30.001 
18:20	11.4	11.4	11.4	79	6.2	0	3	270	0.00	30.001 
18:25	11.4	11.4	11.4	80	6.5	0	0	---	0.00	30.001 
18:30	11.2	11.2	11.2	80	6.3	0	2	270	0.00	30.010 
18:35	11.2	11.2	11.2	80	6.3	0	2	270	0.00	30.010 
18:40	11.2	11.2	11.2	80	6.3	0	1	270	0.00	30.010 
18:45	11.2	11.2	11.2	80	6.3	0	2	270	0.00	30.011 
18:50	11.2	11.2	11.2	80	6.3	0	1	270	0.00	30.011 
18:55	11.4	11.4	11.4	80	6.5	0	2	270	0.00	30.011 
19:00	11.4	11.4	11.4	80	6.5	0	2	270	0.00	30.012 
19:05	11.4	11.4	11.4	80	6.5	0	1	270	0.00	30.012 
19:10	11.4	11.4	11.4	81	6.7	0	2	270	0.00	30.012 
19:15	11.4	11.4	11.4	81	6.7	0	1	270	0.00	30.010 
19:20	11.4	11.4	11.4	81	6.7	0	1	270	0.00	30.010 
19:25	11.2	11.2	11.2	81	6.5	0	1	270	0.00	30.010 
19:30	11.2	11.2	11.2	81	6.5	0	1	270	0.00	30.009 
19:35	11.2	11.2	11.2	81	6.5	0	2	270	0.00	30.009 
19:40	11.2	11.2	11.2	81	6.5	0	1	270	0.00	30.009 
19:45	11.2	11.2	11.2	81	6.5	0	1	270	0.00	30.008 
19:50	11.2	11.2	11.2	81	6.5	0	2	270	0.00	30.008 
19:55	11.2	11.2	11.2	81	6.5	0	2	270	0.00	30.008 
20:00	11.2	11.2	11.2	81	6.5	0	1	270	0.00	30.004 
20:05	11.2	11.2	11.2	81	6.5	0	1	270	0.00	30.004 
20:10	11.2	11.2	11.2	81	6.5	0	2	270	0.00	30.004 
20:15	11.4	11.4	11.4	81	6.7	0	2	270	0.00	29.997 
20:20	11.4	11.4	11.4	81	6.7	0	1	270	0.00	29.997 
20:25	11.4	11.4	11.4	81	6.7	0	1	270	0.00	29.997 
20:30	11.6	11.6	11.6	81	6.9	0	1	270	0.00	29.996 
20:35	11.6	11.6	11.6	81	6.9	0	1	270	0.00	29.996 
20:40	11.6	11.6	11.6	81	6.9	0	1	270	0.00	29.996 
20:45	11.6	11.6	11.6	81	6.9	0	1	270	0.00	29.996 
20:50	11.7	11.7	11.7	81	7.0	0	1	270	0.00	29.996 
20:55	11.7	11.7	11.7	82	7.3	0	1	270	0.00	29.996 
21:00	11.7	11.7	11.7	82	7.3	0	1	270	0.00	29.999 
21:05	11.7	11.7	11.7	82	7.3	0	1	270	0.00	29.999 
21:10	11.9	11.9	11.9	82	7.5	0	1	270	0.00	29.999 
21:15	11.9	11.9	11.9	82	7.5	0	1	270	0.00	29.998 
21:20	11.9	11.9	11.9	82	7.5	0	1	270	0.00	29.998 
21:25	12.1	12.1	12.1	82	7.7	0	1	270	0.00	29.998 
21:30	12.1	12.1	12.1	82	7.7	0	1	270	0.00	30.002 
21:35	12.3	12.3	12.3	82	7.9	0	1	270	0.00	30.002 
21:40	12.3	12.3	12.3	82	7.9	0	2	270	0.00	30.002 
21:45	12.3	12.3	12.3	82	7.9	0	1	270	0.00	30.005 
21:50	12.3	12.3	12.3	82	7.9	0	1	270	0.00	30.005 
21:55	12.1	12.1	12.1	82	7.7	0	1	270	0.00	30.005 
22:00	12.1	12.1	12.1	82	7.7	0	1	270	0.00	30.006 
22:05	12.1	12.1	12.1	82	7.7	0	1	270	0.00	30.006 
22:10	12.1	12.1	12.1	82	7.7	0	1	270	0.00	30.006 
22:15	12.1	12.1	12.1	82	7.7	0	1	270	0.00	30.006 
22:20	11.9	11.9	11.9	82	7.5	0	1	270	0.00	30.006 
22:25	11.9	11.9	11.9	81	7.2	0	1	270	0.00	30.006 
22:30	11.9	11.9	11.9	81	7.2	0	2	270	0.00	30.007 
22:35	11.9	11.9	11.9	81	7.2	1	2	270	0.00	30.007 
22:40	12.1	12.1	12.1	81	7.4	0	2	225	0.00	30.007 
22:45	12.1	12.1	12.1	80	7.1	1	3	225	0.00	30.012 
22:50	12.1	12.1	12.1	78	6.6	1	3	270	0.00	30.012 
22:55	11.9	11.9	11.9	77	6.1	1	3	270	0.00	30.012 
23:00	11.7	11.7	11.7	77	5.9	0	2	270	0.00	30.018 
23:05	11.6	11.6	11.6	76	5.5	0	2	270	0.00	30.018 
23:10	11.4	11.4	11.4	76	5.3	1	3	270	0.00	30.018 
23:15	11.4	11.4	11.4	76	5.3	1	3	270	0.00	30.019 
23:20	11.2	11.2	11.2	76	5.1	2	4	270	0.00	30.019 
23:25	11.2	11.2	11.2	75	4.9	1	3	248	0.00	30.019 
23:30	11.1	11.1	11.1	75	4.8	0	2	248	0.00	30.029 
23:35	10.7	10.7	10.7	75	4.4	1	4	248	0.00	30.029 
23:40	10.7	10.7	10.7	75	4.4	2	3	248	0.00	30.029 
23:45	10.5	10.5	10.5	74	3.9	1	3	292	0.00	30.035 
23:50	10.4	10.4	10.4	74	3.8	1	3	270	0.00	30.035 
23:55	10.2	10.2	10.2	74	3.6	1	3	270	0.00	30.035 

CoCoRaHS
IN-AL-39
A2 Web Hosting
Creative Commons License
GoDaddy
search engine by freefind advanced

loaded 2018-11-15 03:40:54 • last modified 2010-11-18 10:43:29
Privacy PolicyDisclaimer
• wx.awcolley.com is powered by PmWiki v.2002016 •
• all content (unless otherwise noted) © 2018 A W Colley